createdAt,value
2023-01-04T00:00:01.148Z,4.92
2023-01-04T00:05:05.805Z,4.92
2023-01-04T00:10:09.127Z,4.94
2023-01-04T00:15:12.288Z,4.93
2023-01-04T00:20:15.427Z,4.86
2023-01-04T00:25:18.625Z,4.76
2023-01-04T00:30:21.779Z,4.67
2023-01-04T00:35:44.726Z,4.52
2023-01-04T00:40:48.512Z,4.42
2023-01-04T00:45:51.731Z,4.36
2023-01-04T00:50:55.044Z,4.32
2023-01-04T00:56:01.889Z,4.24
2023-01-04T01:01:07.124Z,4.14
2023-01-04T01:06:10.822Z,4.07
2023-01-04T01:11:14.175Z,4.02
2023-01-04T01:16:44.400Z,3.95
2023-01-04T01:21:44.406Z,3.89
2023-01-04T01:26:47.592Z,3.87
2023-01-04T01:31:51.002Z,3.86
2023-01-04T01:36:54.408Z,3.84
2023-01-04T01:41:57.744Z,3.78
2023-01-04T01:47:01.619Z,3.74
2023-01-04T01:52:14.195Z,3.64
2023-01-04T01:57:22.775Z,3.54
2023-01-04T02:02:26.050Z,3.45
2023-01-04T02:07:31.517Z,3.38
2023-01-04T02:12:34.725Z,3.33
2023-01-04T02:18:21.559Z,3.21
2023-01-04T02:23:43.780Z,3.12
2023-01-04T02:28:53.022Z,3.03
2023-01-04T02:34:13.193Z,2.94
2023-01-04T02:39:54.196Z,2.80
2023-01-04T02:45:27.228Z,2.76
2023-01-04T02:50:33.856Z,2.77
2023-01-04T02:55:48.532Z,2.75
2023-01-04T03:01:46.430Z,2.72
2023-01-04T03:07:08.139Z,2.67
2023-01-04T03:12:33.530Z,2.55
2023-01-04T03:17:45.622Z,2.43
2023-01-04T03:23:16.732Z,2.35
2023-01-04T03:28:43.697Z,2.24
2023-01-04T03:34:06.200Z,2.29
2023-01-04T03:39:57.616Z,2.19
2023-01-04T03:45:35.010Z,1.94
2023-01-04T03:50:57.340Z,1.80
2023-01-04T03:56:11.094Z,1.66
2023-01-04T04:01:14.730Z,1.59
2023-01-04T04:06:48.915Z,1.53
2023-01-04T04:11:52.097Z,1.52
2023-01-04T04:16:55.335Z,1.49
2023-01-04T04:21:58.583Z,1.49
2023-01-04T04:27:01.715Z,1.47
2023-01-04T04:32:05.205Z,1.39
2023-01-04T04:37:09.546Z,1.37
2023-01-04T04:42:12.777Z,1.30
2023-01-04T04:47:15.970Z,1.19
2023-01-04T04:52:19.096Z,1.12
2023-01-04T04:57:22.374Z,1.14
2023-01-04T05:02:25.545Z,1.23
2023-01-04T05:07:28.902Z,1.17
2023-01-04T05:12:55.792Z,1.03
2023-01-04T05:18:01.578Z,0.93
2023-01-04T05:23:05.951Z,0.91
2023-01-04T05:28:09.243Z,0.87
2023-01-04T05:33:12.605Z,0.84
2023-01-04T05:38:17.089Z,0.82
2023-01-04T05:43:21.873Z,0.83
2023-01-04T05:48:25.537Z,0.91
2023-01-04T05:53:28.644Z,0.84
2023-01-04T05:58:31.742Z,0.75
2023-01-04T06:03:35.139Z,0.71
2023-01-04T06:08:38.358Z,0.60
2023-01-04T06:13:41.528Z,0.52
2023-01-04T06:18:44.658Z,0.50
2023-01-04T06:23:47.799Z,0.57
2023-01-04T06:28:50.897Z,0.58
2023-01-04T06:33:54.120Z,0.62
2023-01-04T06:38:58.936Z,0.65
2023-01-04T06:44:02.792Z,0.63
2023-01-04T06:49:05.933Z,0.62
2023-01-04T06:54:12.088Z,0.59
2023-01-04T06:59:15.264Z,0.58
2023-01-04T07:04:18.580Z,0.62
2023-01-04T07:09:21.772Z,0.77
2023-01-04T07:14:24.897Z,0.92
2023-01-04T07:19:28.120Z,0.91
2023-01-04T07:24:31.564Z,0.89
2023-01-04T07:29:34.710Z,0.82
2023-01-04T07:34:39.618Z,0.79
2023-01-04T07:39:44.140Z,0.77
2023-01-04T07:44:47.268Z,0.82
2023-01-04T07:49:50.423Z,0.92
2023-01-04T07:54:54.124Z,1.12
2023-01-04T07:59:57.293Z,1.32
2023-01-04T08:05:00.634Z,1.46
2023-01-04T08:10:04.170Z,1.56
2023-01-04T08:15:07.708Z,1.64
2023-01-04T08:20:26.575Z,1.74
2023-01-04T08:25:29.728Z,1.88
2023-01-04T08:30:38.529Z,2.13
2023-01-04T08:35:41.848Z,2.35
2023-01-04T08:41:00.360Z,2.42
2023-01-04T08:46:08.853Z,2.47
2023-01-04T08:51:15.865Z,2.49
2023-01-04T08:56:19.026Z,2.56
2023-01-04T09:01:22.339Z,2.70
2023-01-04T09:06:26.311Z,2.86
2023-01-04T09:11:29.541Z,3.06
2023-01-04T09:16:32.748Z,3.22
2023-01-04T09:21:36.198Z,3.37
2023-01-04T09:26:39.388Z,3.58
2023-01-04T09:31:42.578Z,3.77
2023-01-04T09:36:47.215Z,3.95
2023-01-04T09:42:06.139Z,4.07
2023-01-04T09:47:19.701Z,4.27
2023-01-04T09:52:43.805Z,4.39
2023-01-04T09:57:56.540Z,4.42
2023-01-04T10:03:15.755Z,4.45
2023-01-04T10:08:20.457Z,4.46
2023-01-04T10:14:01.439Z,4.59
2023-01-04T10:19:50.487Z,4.74
2023-01-04T10:24:38.573Z,4.83
2023-01-04T10:30:07.715Z,4.83
2023-01-04T10:35:23.143Z,4.83
2023-01-04T10:40:29.489Z,4.89
2023-01-04T10:45:57.170Z,5.01
2023-01-04T10:51:09.854Z,5.13
2023-01-04T10:56:39.502Z,5.20
2023-01-04T11:01:48.754Z,5.21
2023-01-04T11:07:25.782Z,5.20
2023-01-04T11:12:29.046Z,5.21
2023-01-04T11:17:33.257Z,5.30
2023-01-04T11:22:44.345Z,5.42
2023-01-04T11:27:56.832Z,5.55
2023-01-04T11:33:06.081Z,5.61
2023-01-04T11:38:12.059Z,5.60
2023-01-04T11:43:18.948Z,5.57
2023-01-04T11:48:40.834Z,5.59
2023-01-04T11:53:44.651Z,5.64
2023-01-04T11:59:19.202Z,5.69
2023-01-04T12:04:45.984Z,5.67
2023-01-04T12:09:51.914Z,5.57
2023-01-04T12:14:55.786Z,5.49
2023-01-04T12:20:10.698Z,5.47
2023-01-04T12:25:36.795Z,5.56
2023-01-04T12:30:46.499Z,5.67
2023-01-04T12:35:58.721Z,5.77
2023-01-04T12:41:02.209Z,5.82
2023-01-04T12:47:00.479Z,5.83
2023-01-04T12:52:31.993Z,5.78
2023-01-04T12:57:37.562Z,5.75
2023-01-04T13:02:52.225Z,5.80
2023-01-04T13:08:01.226Z,5.85
2023-01-04T13:13:19.555Z,5.83
2023-01-04T13:18:41.805Z,5.81
2023-01-04T13:23:54.932Z,5.76
2023-01-04T13:29:20.758Z,5.77
2023-01-04T13:34:34.633Z,5.85
2023-01-04T13:39:47.490Z,5.92
2023-01-04T13:50:31.945Z,5.91
2023-01-04T13:55:57.031Z,5.88
2023-01-04T14:01:06.739Z,5.88
2023-01-04T14:06:50.508Z,5.96
2023-01-04T14:12:26.625Z,6.04
2023-01-04T14:17:48.647Z,6.06
2023-01-04T14:22:57.240Z,6.05
2023-01-04T14:28:19.186Z,6.04
2023-01-04T14:33:30.308Z,6.09
2023-01-04T14:38:57.553Z,6.18
2023-01-04T14:44:00.578Z,6.23
2023-01-04T14:49:04.190Z,6.25
2023-01-04T14:55:12.865Z,6.24
2023-01-04T15:00:39.871Z,6.20
2023-01-04T15:05:51.908Z,6.20
2023-01-04T15:11:20.063Z,6.22
2023-01-04T15:16:23.416Z,6.18
2023-01-04T15:21:26.708Z,6.12
2023-01-04T15:26:30.590Z,6.06
2023-01-04T15:31:38.940Z,6.03
2023-01-04T15:36:43.050Z,6.06
2023-01-04T15:42:04.981Z,6.10
2023-01-04T15:47:08.241Z,6.15
2023-01-04T15:52:11.651Z,6.17
2023-01-04T15:57:14.811Z,6.15
2023-01-04T16:02:18.104Z,6.14
2023-01-04T16:07:21.610Z,6.17
2023-01-04T16:12:56.674Z,6.20
2023-01-04T16:18:00.272Z,6.20
2023-01-04T16:23:03.470Z,6.19
2023-01-04T16:28:40.080Z,6.21
2023-01-04T16:47:10.561Z,6.20
2023-01-04T16:52:16.439Z,6.17
2023-01-04T16:58:19.317Z,6.17
2023-01-04T17:30:43.215Z,6.14
2023-01-04T17:36:23.254Z,6.10
2023-01-04T17:41:28.576Z,6.12
2023-01-04T17:46:34.832Z,6.15
2023-01-04T17:51:40.127Z,6.20
2023-01-04T17:56:43.476Z,6.22
2023-01-04T18:01:46.729Z,6.21
2023-01-04T18:06:49.983Z,6.20
2023-01-04T18:11:53.397Z,6.21
2023-01-04T18:16:57.636Z,6.25
2023-01-04T18:22:01.825Z,6.27
2023-01-04T18:27:23.795Z,6.27
2023-01-04T18:32:28.154Z,6.27
2023-01-04T18:37:35.977Z,6.29
2023-01-04T18:42:39.213Z,6.33
2023-01-04T18:47:43.000Z,6.36
2023-01-04T18:52:46.206Z,6.37
2023-01-04T18:57:49.845Z,6.35
2023-01-04T19:02:53.097Z,6.36
2023-01-04T19:07:56.668Z,6.41
2023-01-04T19:12:59.812Z,6.48
2023-01-04T19:18:02.954Z,6.53
2023-01-04T19:23:07.835Z,6.54
2023-01-04T19:28:12.538Z,6.56
2023-01-04T19:33:16.500Z,6.59
2023-01-04T19:38:19.746Z,6.63
2023-01-04T19:43:22.971Z,6.64
2023-01-04T19:48:26.623Z,6.64
2023-01-04T19:53:29.894Z,6.66
2023-01-04T19:58:33.137Z,6.70
2023-01-04T20:03:36.372Z,6.77
2023-01-04T20:08:40.683Z,6.83
2023-01-04T20:13:43.843Z,6.88
2023-01-04T20:18:47.099Z,6.88
2023-01-04T20:23:50.576Z,6.89
2023-01-04T20:28:53.708Z,6.92
2023-01-04T20:33:57.229Z,6.96
2023-01-04T20:39:02.551Z,7.00
2023-01-04T20:44:05.776Z,7.06
2023-01-04T20:49:08.978Z,7.08
2023-01-04T20:54:12.211Z,7.09
2023-01-04T20:59:15.336Z,7.13
2023-01-04T21:04:18.585Z,7.17
2023-01-04T21:09:21.765Z,7.21
2023-01-04T21:14:25.166Z,7.27
2023-01-04T21:19:28.313Z,7.29
2023-01-04T21:24:33.620Z,7.30
2023-01-04T21:29:36.815Z,7.31
2023-01-04T21:34:40.051Z,7.34
2023-01-04T21:39:43.170Z,7.40
2023-01-04T21:44:46.291Z,7.45
2023-01-04T21:49:50.810Z,7.50
2023-01-04T21:54:54.195Z,7.53
2023-01-04T21:59:57.389Z,7.53
2023-01-04T22:05:00.989Z,7.56
2023-01-04T22:10:04.752Z,7.61
2023-01-04T22:15:08.342Z,7.64
2023-01-04T22:20:11.788Z,7.65
2023-01-04T22:25:15.225Z,7.65
2023-01-04T22:30:18.437Z,7.64
2023-01-04T22:35:22.411Z,7.66
2023-01-04T22:40:25.550Z,7.70
2023-01-04T22:45:28.739Z,7.74
2023-01-04T22:50:32.218Z,7.79
2023-01-04T22:56:17.010Z,7.82
2023-01-04T23:01:05.719Z,7.83
2023-01-04T23:06:12.264Z,7.86
2023-01-04T23:11:17.642Z,7.92
2023-01-04T23:16:26.184Z,7.96
2023-01-04T23:21:34.634Z,8.03
2023-01-04T23:26:37.931Z,8.08
2023-01-04T23:31:41.584Z,8.10
2023-01-04T23:36:44.804Z,8.12
2023-01-04T23:41:48.163Z,8.16
2023-01-04T23:46:57.450Z,8.20
2023-01-04T23:52:01.518Z,8.25
2023-01-04T23:57:05.062Z,8.30
